Anajatuba, Brazil
Current Conditions -  °F | °C
As of 3:00 AM on Thursday 29 Jan 2015 (Local Time) from SBSL Reporting Station
Few Clouds Few Clouds  
Wind Chill: 26°   Ceiling: Unl
Heat Index: 27°   Visibility: 6mi
Dew Point: 21°   Wind: 7mph
Humidity: 74%   Direction: 60°ENE
Pressure: 29.83"   Gusts: NA
Location:  3.26°S, 44.62°W
Report Text: SBSL 290600Z 06006KT 9999 FEW020 26/21 Q1010
Loading
Personal Weather Stations






























Interactive Weather Map New forecast layout! Learn more

10-Day Weather Forecast

Advertisements
Track Severe Weather on mobile